sensor_id;sensor_type;location;lat;lon;timestamp;P1;durP1;ratioP1;P2;durP2;ratioP2
31126;SDS011;17775;57.948;12.514;2022-09-12T00:01:48;4.70;;;2.80;;
31126;SDS011;17775;57.948;12.514;2022-09-12T00:04:14;4.30;;;2.83;;
31126;SDS011;17775;57.948;12.514;2022-09-12T00:06:40;4.38;;;2.60;;
31126;SDS011;17775;57.948;12.514;2022-09-12T00:09:09;5.15;;;2.95;;
31126;SDS011;17775;57.948;12.514;2022-09-12T00:11:36;6.03;;;3.38;;
31126;SDS011;17775;57.948;12.514;2022-09-12T00:14:03;6.75;;;2.70;;
31126;SDS011;17775;57.948;12.514;2022-09-12T00:16:31;7.53;;;2.90;;
31126;SDS011;17775;57.948;12.514;2022-09-12T00:18:58;8.98;;;2.85;;
31126;SDS011;17775;57.948;12.514;2022-09-12T00:21:24;8.38;;;3.40;;
31126;SDS011;17775;57.948;12.514;2022-09-12T00:23:51;5.28;;;2.50;;
31126;SDS011;17775;57.948;12.514;2022-09-12T00:26:18;11.07;;;3.22;;
31126;SDS011;17775;57.948;12.514;2022-09-12T00:28:45;7.13;;;3.08;;
31126;SDS011;17775;57.948;12.514;2022-09-12T00:31:16;10.25;;;3.55;;
31126;SDS011;17775;57.948;12.514;2022-09-12T00:33:43;9.70;;;3.35;;
31126;SDS011;17775;57.948;12.514;2022-09-12T00:36:11;8.90;;;3.20;;
31126;SDS011;17775;57.948;12.514;2022-09-12T00:38:40;9.85;;;3.03;;
31126;SDS011;17775;57.948;12.514;2022-09-12T00:41:10;21.23;;;4.10;;
31126;SDS011;17775;57.948;12.514;2022-09-12T00:51:35;7.82;;;4.03;;
31126;SDS011;17775;57.948;12.514;2022-09-12T00:54:05;8.65;;;3.42;;
31126;SDS011;17775;57.948;12.514;2022-09-12T00:56:34;8.10;;;3.35;;
31126;SDS011;17775;57.948;12.514;2022-09-12T00:59:21;8.18;;;3.40;;
31126;SDS011;17775;57.948;12.514;2022-09-12T01:01:49;6.70;;;3.38;;
31126;SDS011;17775;57.948;12.514;2022-09-12T01:04:17;11.65;;;4.50;;
31126;SDS011;17775;57.948;12.514;2022-09-12T01:06:45;9.15;;;3.55;;
31126;SDS011;17775;57.948;12.514;2022-09-12T01:09:13;7.95;;;4.05;;
31126;SDS011;17775;57.948;12.514;2022-09-12T01:11:40;12.70;;;3.90;;
31126;SDS011;17775;57.948;12.514;2022-09-12T01:14:07;13.57;;;4.15;;
31126;SDS011;17775;57.948;12.514;2022-09-12T01:16:34;14.95;;;4.20;;
31126;SDS011;17775;57.948;12.514;2022-09-12T01:19:24;7.35;;;4.32;;
31126;SDS011;17775;57.948;12.514;2022-09-12T01:33:31;22.55;;;4.57;;
31126;SDS011;17775;57.948;12.514;2022-09-12T01:43:33;23.23;;;4.60;;
31126;SDS011;17775;57.948;12.514;2022-09-12T01:46:40;14.15;;;4.57;;
31126;SDS011;17775;57.948;12.514;2022-09-12T01:48:56;25.50;;;4.78;;
31126;SDS011;17775;57.948;12.514;2022-09-12T01:51:27;13.90;;;4.38;;
31126;SDS011;17775;57.948;12.514;2022-09-12T01:53:57;35.67;;;4.43;;
31126;SDS011;17775;57.948;12.514;2022-09-12T01:56:26;13.38;;;4.00;;
31126;SDS011;17775;57.948;12.514;2022-09-12T01:58:56;36.70;;;4.90;;
31126;SDS011;17775;57.948;12.514;2022-09-12T02:01:25;18.33;;;4.40;;
31126;SDS011;17775;57.948;12.514;2022-09-12T02:03:56;15.90;;;3.97;;
31126;SDS011;17775;57.948;12.514;2022-09-12T02:06:28;22.42;;;4.43;;
31126;SDS011;17775;57.948;12.514;2022-09-12T02:09:03;7.43;;;3.80;;
31126;SDS011;17775;57.948;12.514;2022-09-12T02:11:32;6.70;;;4.13;;
31126;SDS011;17775;57.948;12.514;2022-09-12T02:14:03;14.20;;;3.95;;
31126;SDS011;17775;57.948;12.514;2022-09-12T02:16:35;19.65;;;4.10;;
31126;SDS011;17775;57.948;12.514;2022-09-12T02:19:09;11.23;;;4.20;;
31126;SDS011;17775;57.948;12.514;2022-09-12T02:21:36;9.23;;;3.88;;
31126;SDS011;17775;57.948;12.514;2022-09-12T02:24:05;8.45;;;4.13;;
31126;SDS011;17775;57.948;12.514;2022-09-12T02:26:40;7.10;;;3.33;;
31126;SDS011;17775;57.948;12.514;2022-09-12T02:29:09;8.95;;;3.78;;
31126;SDS011;17775;57.948;12.514;2022-09-12T02:31:37;8.93;;;3.17;;
31126;SDS011;17775;57.948;12.514;2022-09-12T02:39:10;10.82;;;3.30;;
31126;SDS011;17775;57.948;12.514;2022-09-12T02:41:37;7.95;;;3.13;;
31126;SDS011;17775;57.948;12.514;2022-09-12T02:44:03;5.28;;;3.05;;
31126;SDS011;17775;57.948;12.514;2022-09-12T02:46:32;4.82;;;3.13;;
31126;SDS011;17775;57.948;12.514;2022-09-12T02:49:01;10.10;;;3.35;;
31126;SDS011;17775;57.948;12.514;2022-09-12T02:51:28;5.85;;;3.22;;
31126;SDS011;17775;57.948;12.514;2022-09-12T02:53:55;5.25;;;3.38;;
31126;SDS011;17775;57.948;12.514;2022-09-12T02:56:26;6.18;;;3.70;;
31126;SDS011;17775;57.948;12.514;2022-09-12T03:19:08;5.43;;;2.50;;
31126;SDS011;17775;57.948;12.514;2022-09-12T03:21:44;5.70;;;3.13;;
31126;SDS011;17775;57.948;12.514;2022-09-12T03:24:34;4.00;;;2.40;;
31126;SDS011;17775;57.948;12.514;2022-09-12T03:27:11;4.80;;;3.00;;
31126;SDS011;17775;57.948;12.514;2022-09-12T03:29:39;3.67;;;2.47;;
31126;SDS011;17775;57.948;12.514;2022-09-12T03:32:06;5.00;;;2.60;;
31126;SDS011;17775;57.948;12.514;2022-09-12T03:34:32;4.28;;;2.80;;
31126;SDS011;17775;57.948;12.514;2022-09-12T03:36:59;6.32;;;2.75;;
31126;SDS011;17775;57.948;12.514;2022-09-12T03:39:25;5.50;;;2.63;;
31126;SDS011;17775;57.948;12.514;2022-09-12T03:41:52;3.75;;;2.65;;
31126;SDS011;17775;57.948;12.514;2022-09-12T03:44:19;4.13;;;2.08;;
31126;SDS011;17775;57.948;12.514;2022-09-12T03:46:45;3.22;;;2.10;;
31126;SDS011;17775;57.948;12.514;2022-09-12T03:49:12;4.55;;;2.25;;
31126;SDS011;17775;57.948;12.514;2022-09-12T03:51:38;4.30;;;2.67;;
31126;SDS011;17775;57.948;12.514;2022-09-12T03:54:05;4.60;;;2.33;;
31126;SDS011;17775;57.948;12.514;2022-09-12T03:56:31;5.93;;;2.80;;
31126;SDS011;17775;57.948;12.514;2022-09-12T03:58:58;3.30;;;2.22;;
31126;SDS011;17775;57.948;12.514;2022-09-12T04:01:24;4.70;;;2.85;;
31126;SDS011;17775;57.948;12.514;2022-09-12T04:03:51;4.63;;;3.15;;
31126;SDS011;17775;57.948;12.514;2022-09-12T04:06:19;4.60;;;2.70;;
31126;SDS011;17775;57.948;12.514;2022-09-12T04:08:49;4.43;;;2.58;;
31126;SDS011;17775;57.948;12.514;2022-09-12T04:11:16;4.45;;;2.55;;
31126;SDS011;17775;57.948;12.514;2022-09-12T04:13:43;5.00;;;2.88;;
31126;SDS011;17775;57.948;12.514;2022-09-12T04:16:10;4.70;;;3.10;;
31126;SDS011;17775;57.948;12.514;2022-09-12T04:18:40;4.50;;;2.70;;
31126;SDS011;17775;57.948;12.514;2022-09-12T04:21:14;3.50;;;2.38;;
31126;SDS011;17775;57.948;12.514;2022-09-12T04:23:41;5.28;;;2.97;;
31126;SDS011;17775;57.948;12.514;2022-09-12T04:26:08;3.28;;;2.22;;
31126;SDS011;17775;57.948;12.514;2022-09-12T04:28:35;4.65;;;2.45;;
31126;SDS011;17775;57.948;12.514;2022-09-12T04:31:02;5.53;;;2.67;;
31126;SDS011;17775;57.948;12.514;2022-09-12T04:33:30;4.93;;;2.63;;
31126;SDS011;17775;57.948;12.514;2022-09-12T04:36:01;5.03;;;3.00;;
31126;SDS011;17775;57.948;12.514;2022-09-12T04:40:54;4.97;;;2.63;;
31126;SDS011;17775;57.948;12.514;2022-09-12T04:43:20;5.28;;;2.85;;
31126;SDS011;17775;57.948;12.514;2022-09-12T04:45:47;3.60;;;2.70;;
31126;SDS011;17775;57.948;12.514;2022-09-12T04:48:13;5.50;;;2.97;;
31126;SDS011;17775;57.948;12.514;2022-09-12T04:50:40;3.17;;;2.53;;
31126;SDS011;17775;57.948;12.514;2022-09-12T04:53:07;8.52;;;2.92;;
31126;SDS011;17775;57.948;12.514;2022-09-12T04:55:33;9.73;;;4.88;;
31126;SDS011;17775;57.948;12.514;2022-09-12T04:58:00;11.90;;;7.38;;
31126;SDS011;17775;57.948;12.514;2022-09-12T05:00:27;12.43;;;7.43;;
31126;SDS011;17775;57.948;12.514;2022-09-12T05:02:54;13.77;;;7.50;;
31126;SDS011;17775;57.948;12.514;2022-09-12T05:05:20;8.85;;;6.28;;
31126;SDS011;17775;57.948;12.514;2022-09-12T05:07:47;7.25;;;4.38;;
31126;SDS011;17775;57.948;12.514;2022-09-12T05:10:13;6.40;;;4.13;;
31126;SDS011;17775;57.948;12.514;2022-09-12T05:12:40;7.15;;;3.88;;
31126;SDS011;17775;57.948;12.514;2022-09-12T05:15:06;5.68;;;3.90;;
31126;SDS011;17775;57.948;12.514;2022-09-12T05:17:33;7.35;;;3.28;;
31126;SDS011;17775;57.948;12.514;2022-09-12T05:19:59;6.32;;;3.50;;
31126;SDS011;17775;57.948;12.514;2022-09-12T05:22:26;5.82;;;3.15;;
31126;SDS011;17775;57.948;12.514;2022-09-12T05:24:53;6.10;;;3.35;;
31126;SDS011;17775;57.948;12.514;2022-09-12T05:27:22;7.32;;;3.72;;
31126;SDS011;17775;57.948;12.514;2022-09-12T05:29:48;3.95;;;3.00;;
31126;SDS011;17775;57.948;12.514;2022-09-12T05:32:14;6.13;;;3.70;;
31126;SDS011;17775;57.948;12.514;2022-09-12T05:34:41;4.38;;;3.30;;
31126;SDS011;17775;57.948;12.514;2022-09-12T05:37:07;5.35;;;3.35;;
31126;SDS011;17775;57.948;12.514;2022-09-12T05:39:34;7.50;;;4.05;;
31126;SDS011;17775;57.948;12.514;2022-09-12T05:42:00;8.20;;;4.65;;
31126;SDS011;17775;57.948;12.514;2022-09-12T05:44:27;7.68;;;4.00;;
31126;SDS011;17775;57.948;12.514;2022-09-12T05:46:53;6.20;;;3.63;;
31126;SDS011;17775;57.948;12.514;2022-09-12T05:49:20;4.55;;;3.53;;
31126;SDS011;17775;57.948;12.514;2022-09-12T05:51:46;5.45;;;3.33;;
31126;SDS011;17775;57.948;12.514;2022-09-12T05:54:14;6.60;;;4.05;;
31126;SDS011;17775;57.948;12.514;2022-09-12T05:56:41;5.25;;;3.33;;
31126;SDS011;17775;57.948;12.514;2022-09-12T05:59:10;5.57;;;3.67;;
31126;SDS011;17775;57.948;12.514;2022-09-12T06:01:37;5.47;;;3.55;;
31126;SDS011;17775;57.948;12.514;2022-09-12T06:04:04;5.30;;;3.10;;
31126;SDS011;17775;57.948;12.514;2022-09-12T06:06:33;7.55;;;3.30;;
31126;SDS011;17775;57.948;12.514;2022-09-12T06:09:00;5.40;;;3.28;;
31126;SDS011;17775;57.948;12.514;2022-09-12T06:11:28;6.97;;;3.60;;
31126;SDS011;17775;57.948;12.514;2022-09-12T06:13:55;6.00;;;3.25;;
31126;SDS011;17775;57.948;12.514;2022-09-12T06:16:23;6.78;;;3.60;;
31126;SDS011;17775;57.948;12.514;2022-09-12T06:18:52;5.57;;;3.28;;
31126;SDS011;17775;57.948;12.514;2022-09-12T06:21:19;6.60;;;3.88;;
31126;SDS011;17775;57.948;12.514;2022-09-12T06:23:46;5.85;;;3.65;;
31126;SDS011;17775;57.948;12.514;2022-09-12T06:26:13;7.72;;;3.40;;
31126;SDS011;17775;57.948;12.514;2022-09-12T06:28:41;6.85;;;3.63;;
31126;SDS011;17775;57.948;12.514;2022-09-12T06:31:11;7.13;;;3.00;;
31126;SDS011;17775;57.948;12.514;2022-09-12T06:33:39;4.20;;;2.75;;
31126;SDS011;17775;57.948;12.514;2022-09-12T06:36:06;4.15;;;3.08;;
31126;SDS011;17775;57.948;12.514;2022-09-12T06:38:38;4.22;;;2.85;;
31126;SDS011;17775;57.948;12.514;2022-09-12T06:41:05;4.70;;;3.03;;
31126;SDS011;17775;57.948;12.514;2022-09-12T06:43:32;6.45;;;3.38;;
31126;SDS011;17775;57.948;12.514;2022-09-12T06:45:59;4.85;;;3.08;;
31126;SDS011;17775;57.948;12.514;2022-09-12T06:48:26;3.08;;;2.35;;
31126;SDS011;17775;57.948;12.514;2022-09-12T06:51:00;5.65;;;2.72;;
31126;SDS011;17775;57.948;12.514;2022-09-12T06:53:27;4.72;;;3.10;;
31126;SDS011;17775;57.948;12.514;2022-09-12T06:55:58;6.95;;;3.10;;
31126;SDS011;17775;57.948;12.514;2022-09-12T06:58:25;5.35;;;2.53;;
31126;SDS011;17775;57.948;12.514;2022-09-12T07:00:52;4.47;;;2.88;;
31126;SDS011;17775;57.948;12.514;2022-09-12T07:03:26;4.43;;;3.03;;
31126;SDS011;17775;57.948;12.514;2022-09-12T07:05:52;5.00;;;2.75;;
31126;SDS011;17775;57.948;12.514;2022-09-12T07:08:19;4.97;;;2.83;;
31126;SDS011;17775;57.948;12.514;2022-09-12T07:10:45;6.38;;;3.35;;
31126;SDS011;17775;57.948;12.514;2022-09-12T07:13:11;4.82;;;3.03;;
31126;SDS011;17775;57.948;12.514;2022-09-12T07:15:41;4.93;;;2.90;;
31126;SDS011;17775;57.948;12.514;2022-09-12T07:18:07;4.70;;;2.80;;
31126;SDS011;17775;57.948;12.514;2022-09-12T07:20:35;4.57;;;2.75;;
31126;SDS011;17775;57.948;12.514;2022-09-12T07:23:02;6.47;;;2.95;;
31126;SDS011;17775;57.948;12.514;2022-09-12T07:25:28;5.25;;;3.08;;
31126;SDS011;17775;57.948;12.514;2022-09-12T07:27:57;6.65;;;3.28;;
31126;SDS011;17775;57.948;12.514;2022-09-12T07:30:23;7.97;;;3.50;;
31126;SDS011;17775;57.948;12.514;2022-09-12T07:32:51;6.13;;;3.15;;
31126;SDS011;17775;57.948;12.514;2022-09-12T07:35:19;3.50;;;2.60;;
31126;SDS011;17775;57.948;12.514;2022-09-12T07:37:46;4.57;;;2.75;;
31126;SDS011;17775;57.948;12.514;2022-09-12T07:40:12;5.25;;;3.28;;
31126;SDS011;17775;57.948;12.514;2022-09-12T07:42:38;6.63;;;3.47;;
31126;SDS011;17775;57.948;12.514;2022-09-12T07:45:05;5.80;;;3.03;;
31126;SDS011;17775;57.948;12.514;2022-09-12T07:47:31;4.80;;;2.80;;
31126;SDS011;17775;57.948;12.514;2022-09-12T07:49:58;4.07;;;2.63;;
31126;SDS011;17775;57.948;12.514;2022-09-12T07:52:24;4.90;;;2.92;;
31126;SDS011;17775;57.948;12.514;2022-09-12T07:54:50;8.07;;;3.00;;
31126;SDS011;17775;57.948;12.514;2022-09-12T07:57:17;4.28;;;2.75;;
31126;SDS011;17775;57.948;12.514;2022-09-12T07:59:43;5.63;;;3.03;;
31126;SDS011;17775;57.948;12.514;2022-09-12T08:02:18;4.03;;;2.58;;
31126;SDS011;17775;57.948;12.514;2022-09-12T08:04:48;7.53;;;3.97;;
31126;SDS011;17775;57.948;12.514;2022-09-12T08:07:14;5.72;;;2.80;;
31126;SDS011;17775;57.948;12.514;2022-09-12T08:09:41;4.35;;;3.13;;
31126;SDS011;17775;57.948;12.514;2022-09-12T08:12:07;5.95;;;2.72;;
31126;SDS011;17775;57.948;12.514;2022-09-12T08:14:34;5.35;;;2.75;;
31126;SDS011;17775;57.948;12.514;2022-09-12T08:17:00;4.00;;;2.95;;
31126;SDS011;17775;57.948;12.514;2022-09-12T08:19:26;7.10;;;3.05;;
31126;SDS011;17775;57.948;12.514;2022-09-12T08:21:53;4.00;;;2.75;;
31126;SDS011;17775;57.948;12.514;2022-09-12T08:24:19;4.63;;;3.22;;
31126;SDS011;17775;57.948;12.514;2022-09-12T08:26:45;5.03;;;2.78;;
31126;SDS011;17775;57.948;12.514;2022-09-12T08:29:12;5.78;;;2.95;;
31126;SDS011;17775;57.948;12.514;2022-09-12T08:31:38;4.95;;;2.88;;
31126;SDS011;17775;57.948;12.514;2022-09-12T08:34:06;7.32;;;3.25;;
31126;SDS011;17775;57.948;12.514;2022-09-12T08:36:33;6.82;;;3.03;;
31126;SDS011;17775;57.948;12.514;2022-09-12T08:39:01;5.72;;;3.15;;
31126;SDS011;17775;57.948;12.514;2022-09-12T08:41:31;6.93;;;3.00;;
31126;SDS011;17775;57.948;12.514;2022-09-12T08:49:03;4.85;;;3.17;;
31126;SDS011;17775;57.948;12.514;2022-09-12T08:51:32;6.00;;;2.72;;
31126;SDS011;17775;57.948;12.514;2022-09-12T08:53:59;7.00;;;2.97;;
31126;SDS011;17775;57.948;12.514;2022-09-12T08:56:27;6.32;;;3.55;;
31126;SDS011;17775;57.948;12.514;2022-09-12T08:58:57;4.40;;;2.80;;
31126;SDS011;17775;57.948;12.514;2022-09-12T09:03:54;4.40;;;2.83;;
31126;SDS011;17775;57.948;12.514;2022-09-12T09:06:24;5.68;;;3.10;;
31126;SDS011;17775;57.948;12.514;2022-09-12T09:14:02;3.03;;;2.53;;
31126;SDS011;17775;57.948;12.514;2022-09-12T09:16:51;4.82;;;2.80;;
31126;SDS011;17775;57.948;12.514;2022-09-12T09:19:20;5.40;;;2.60;;
31126;SDS011;17775;57.948;12.514;2022-09-12T09:21:53;4.45;;;2.53;;
31126;SDS011;17775;57.948;12.514;2022-09-12T09:24:23;4.72;;;2.75;;
31126;SDS011;17775;57.948;12.514;2022-09-12T09:26:54;4.78;;;2.30;;
31126;SDS011;17775;57.948;12.514;2022-09-12T09:29:29;4.40;;;2.43;;
31126;SDS011;17775;57.948;12.514;2022-09-12T09:31:59;3.10;;;2.05;;
31126;SDS011;17775;57.948;12.514;2022-09-12T09:34:29;5.22;;;2.30;;
31126;SDS011;17775;57.948;12.514;2022-09-12T09:37:00;4.85;;;2.17;;
31126;SDS011;17775;57.948;12.514;2022-09-12T09:39:44;5.25;;;2.30;;
31126;SDS011;17775;57.948;12.514;2022-09-12T09:42:20;3.72;;;2.10;;
31126;SDS011;17775;57.948;12.514;2022-09-12T09:44:49;2.95;;;2.08;;
31126;SDS011;17775;57.948;12.514;2022-09-12T09:47:18;3.97;;;1.85;;
31126;SDS011;17775;57.948;12.514;2022-09-12T09:49:44;3.08;;;1.77;;
31126;SDS011;17775;57.948;12.514;2022-09-12T09:52:13;3.28;;;1.88;;
31126;SDS011;17775;57.948;12.514;2022-09-12T09:54:42;5.25;;;1.80;;
31126;SDS011;17775;57.948;12.514;2022-09-12T09:59:54;4.30;;;1.75;;
31126;SDS011;17775;57.948;12.514;2022-09-12T10:02:21;3.05;;;1.80;;
31126;SDS011;17775;57.948;12.514;2022-09-12T10:04:52;4.60;;;1.73;;
31126;SDS011;17775;57.948;12.514;2022-09-12T10:07:20;3.25;;;1.75;;
31126;SDS011;17775;57.948;12.514;2022-09-12T10:12:28;3.03;;;1.77;;
31126;SDS011;17775;57.948;12.514;2022-09-12T10:14:56;1.95;;;1.33;;
31126;SDS011;17775;57.948;12.514;2022-09-12T10:17:30;2.30;;;1.67;;
31126;SDS011;17775;57.948;12.514;2022-09-12T10:19:59;2.67;;;1.83;;
31126;SDS011;17775;57.948;12.514;2022-09-12T10:22:46;2.13;;;1.58;;
31126;SDS011;17775;57.948;12.514;2022-09-12T10:25:14;2.35;;;1.70;;
31126;SDS011;17775;57.948;12.514;2022-09-12T10:27:41;3.58;;;1.90;;
31126;SDS011;17775;57.948;12.514;2022-09-12T10:30:18;2.28;;;1.38;;
31126;SDS011;17775;57.948;12.514;2022-09-12T10:32:45;2.70;;;1.67;;
31126;SDS011;17775;57.948;12.514;2022-09-12T10:35:20;2.15;;;1.60;;
31126;SDS011;17775;57.948;12.514;2022-09-12T10:40:36;2.22;;;1.30;;
31126;SDS011;17775;57.948;12.514;2022-09-12T10:43:17;2.67;;;1.75;;
31126;SDS011;17775;57.948;12.514;2022-09-12T10:45:43;2.80;;;1.70;;
31126;SDS011;17775;57.948;12.514;2022-09-12T10:50:52;2.33;;;1.70;;
31126;SDS011;17775;57.948;12.514;2022-09-12T10:53:22;2.70;;;1.50;;
31126;SDS011;17775;57.948;12.514;2022-09-12T10:55:54;2.80;;;1.63;;
31126;SDS011;17775;57.948;12.514;2022-09-12T10:58:27;2.80;;;1.50;;
31126;SDS011;17775;57.948;12.514;2022-09-12T11:00:57;8.60;;;1.92;;
31126;SDS011;17775;57.948;12.514;2022-09-12T11:03:34;4.30;;;1.40;;
31126;SDS011;17775;57.948;12.514;2022-09-12T11:06:07;5.47;;;1.80;;
31126;SDS011;17775;57.948;12.514;2022-09-12T11:13:58;3.70;;;2.08;;
31126;SDS011;17775;57.948;12.514;2022-09-12T11:24:23;2.38;;;1.65;;
31126;SDS011;17775;57.948;12.514;2022-09-12T11:34:14;3.20;;;1.55;;
31126;SDS011;17775;57.948;12.514;2022-09-12T11:39:15;2.58;;;1.45;;
31126;SDS011;17775;57.948;12.514;2022-09-12T11:41:49;3.25;;;1.30;;
31126;SDS011;17775;57.948;12.514;2022-09-12T11:46:42;2.70;;;1.45;;
31126;SDS011;17775;57.948;12.514;2022-09-12T11:49:27;4.03;;;1.60;;
31126;SDS011;17775;57.948;12.514;2022-09-12T11:52:12;2.50;;;1.35;;
31126;SDS011;17775;57.948;12.514;2022-09-12T11:59:43;5.07;;;1.55;;
31126;SDS011;17775;57.948;12.514;2022-09-12T12:02:13;2.40;;;1.38;;
31126;SDS011;17775;57.948;12.514;2022-09-12T12:04:45;3.55;;;1.40;;
31126;SDS011;17775;57.948;12.514;2022-09-12T12:07:13;3.33;;;1.50;;
31126;SDS011;17775;57.948;12.514;2022-09-12T12:09:45;2.15;;;1.25;;
31126;SDS011;17775;57.948;12.514;2022-09-12T12:12:14;3.10;;;1.35;;
31126;SDS011;17775;57.948;12.514;2022-09-12T12:14:42;4.88;;;1.50;;
31126;SDS011;17775;57.948;12.514;2022-09-12T12:17:19;2.72;;;1.35;;
31126;SDS011;17775;57.948;12.514;2022-09-12T12:19:46;2.40;;;1.40;;
31126;SDS011;17775;57.948;12.514;2022-09-12T12:22:22;4.25;;;1.55;;
31126;SDS011;17775;57.948;12.514;2022-09-12T12:28:03;2.42;;;1.25;;
31126;SDS011;17775;57.948;12.514;2022-09-12T12:38:03;2.13;;;1.40;;
31126;SDS011;17775;57.948;12.514;2022-09-12T12:40:30;3.33;;;1.60;;
31126;SDS011;17775;57.948;12.514;2022-09-12T12:42:58;3.70;;;1.60;;
31126;SDS011;17775;57.948;12.514;2022-09-12T12:47:53;2.53;;;1.48;;
31126;SDS011;17775;57.948;12.514;2022-09-12T12:50:21;1.60;;;1.20;;
31126;SDS011;17775;57.948;12.514;2022-09-12T12:52:49;4.68;;;1.48;;
31126;SDS011;17775;57.948;12.514;2022-09-12T12:57:48;6.95;;;1.83;;
31126;SDS011;17775;57.948;12.514;2022-09-12T13:05:50;2.60;;;1.60;;
31126;SDS011;17775;57.948;12.514;2022-09-12T13:10:50;2.05;;;1.45;;
31126;SDS011;17775;57.948;12.514;2022-09-12T13:13:29;4.55;;;1.70;;
31126;SDS011;17775;57.948;12.514;2022-09-12T13:15:57;3.25;;;1.90;;
31126;SDS011;17775;57.948;12.514;2022-09-12T13:18:27;3.25;;;1.50;;
31126;SDS011;17775;57.948;12.514;2022-09-12T13:23:37;3.42;;;1.67;;
31126;SDS011;17775;57.948;12.514;2022-09-12T13:26:07;3.42;;;1.60;;
31126;SDS011;17775;57.948;12.514;2022-09-12T13:28:35;2.05;;;1.40;;
31126;SDS011;17775;57.948;12.514;2022-09-12T13:39:04;1.60;;;0.98;;
31126;SDS011;17775;57.948;12.514;2022-09-12T13:44:23;4.72;;;2.53;;
31126;SDS011;17775;57.948;12.514;2022-09-12T13:46:50;1.88;;;1.00;;
31126;SDS011;17775;57.948;12.514;2022-09-12T13:51:54;3.53;;;1.00;;
31126;SDS011;17775;57.948;12.514;2022-09-12T13:54:21;1.77;;;1.08;;
31126;SDS011;17775;57.948;12.514;2022-09-12T13:56:49;1.55;;;1.02;;
31126;SDS011;17775;57.948;12.514;2022-09-12T13:59:16;2.30;;;1.10;;
31126;SDS011;17775;57.948;12.514;2022-09-12T14:01:43;3.08;;;1.00;;
31126;SDS011;17775;57.948;12.514;2022-09-12T14:04:13;1.45;;;0.80;;
31126;SDS011;17775;57.948;12.514;2022-09-12T14:06:59;1.98;;;1.00;;
31126;SDS011;17775;57.948;12.514;2022-09-12T14:09:40;1.60;;;0.90;;
31126;SDS011;17775;57.948;12.514;2022-09-12T14:14:36;2.88;;;1.00;;
31126;SDS011;17775;57.948;12.514;2022-09-12T14:17:14;4.72;;;1.20;;
31126;SDS011;17775;57.948;12.514;2022-09-12T14:19:50;3.20;;;1.27;;
31126;SDS011;17775;57.948;12.514;2022-09-12T14:22:18;1.70;;;1.00;;
31126;SDS011;17775;57.948;12.514;2022-09-12T14:24:47;1.55;;;1.00;;
31126;SDS011;17775;57.948;12.514;2022-09-12T14:27:18;1.92;;;1.10;;
31126;SDS011;17775;57.948;12.514;2022-09-12T14:32:21;1.65;;;0.77;;
31126;SDS011;17775;57.948;12.514;2022-09-12T14:35:33;1.58;;;0.90;;
31126;SDS011;17775;57.948;12.514;2022-09-12T14:37:34;2.70;;;0.80;;
31126;SDS011;17775;57.948;12.514;2022-09-12T14:40:01;1.73;;;1.13;;
31126;SDS011;17775;57.948;12.514;2022-09-12T14:42:29;1.95;;;0.90;;
31126;SDS011;17775;57.948;12.514;2022-09-12T14:45:12;2.45;;;0.80;;
31126;SDS011;17775;57.948;12.514;2022-09-12T14:47:39;1.58;;;0.95;;
31126;SDS011;17775;57.948;12.514;2022-09-12T14:50:14;1.13;;;0.82;;
31126;SDS011;17775;57.948;12.514;2022-09-12T14:52:41;2.15;;;0.90;;
31126;SDS011;17775;57.948;12.514;2022-09-12T14:55:26;1.40;;;1.00;;
31126;SDS011;17775;57.948;12.514;2022-09-12T15:00:50;1.35;;;0.95;;
31126;SDS011;17775;57.948;12.514;2022-09-12T15:03:51;2.30;;;1.10;;
31126;SDS011;17775;57.948;12.514;2022-09-12T15:06:28;1.88;;;1.00;;
31126;SDS011;17775;57.948;12.514;2022-09-12T15:08:56;2.45;;;1.00;;
31126;SDS011;17775;57.948;12.514;2022-09-12T15:11:22;1.90;;;1.13;;
31126;SDS011;17775;57.948;12.514;2022-09-12T15:13:49;2.55;;;1.10;;
31126;SDS011;17775;57.948;12.514;2022-09-12T15:16:16;2.13;;;1.33;;
31126;SDS011;17775;57.948;12.514;2022-09-12T15:18:42;2.15;;;1.10;;
31126;SDS011;17775;57.948;12.514;2022-09-12T15:21:10;3.42;;;1.15;;
31126;SDS011;17775;57.948;12.514;2022-09-12T15:23:47;1.83;;;1.23;;
31126;SDS011;17775;57.948;12.514;2022-09-12T15:26:18;3.05;;;1.20;;
31126;SDS011;17775;57.948;12.514;2022-09-12T15:28:45;3.00;;;1.23;;
31126;SDS011;17775;57.948;12.514;2022-09-12T15:31:27;1.88;;;1.05;;
31126;SDS011;17775;57.948;12.514;2022-09-12T15:33:55;1.73;;;0.90;;
31126;SDS011;17775;57.948;12.514;2022-09-12T15:36:22;3.45;;;1.20;;
31126;SDS011;17775;57.948;12.514;2022-09-12T15:38:49;1.45;;;1.02;;
31126;SDS011;17775;57.948;12.514;2022-09-12T15:43:46;2.60;;;1.50;;
31126;SDS011;17775;57.948;12.514;2022-09-12T15:46:13;1.77;;;1.08;;
31126;SDS011;17775;57.948;12.514;2022-09-12T15:48:40;2.80;;;1.52;;
31126;SDS011;17775;57.948;12.514;2022-09-12T15:51:09;2.40;;;0.93;;
31126;SDS011;17775;57.948;12.514;2022-09-12T15:53:40;2.88;;;1.38;;
31126;SDS011;17775;57.948;12.514;2022-09-12T15:56:07;3.47;;;1.45;;
31126;SDS011;17775;57.948;12.514;2022-09-12T15:58:36;2.05;;;1.30;;
31126;SDS011;17775;57.948;12.514;2022-09-12T16:01:22;2.60;;;1.40;;
31126;SDS011;17775;57.948;12.514;2022-09-12T16:03:51;4.25;;;1.20;;
31126;SDS011;17775;57.948;12.514;2022-09-12T16:06:17;4.32;;;1.65;;
31126;SDS011;17775;57.948;12.514;2022-09-12T16:08:44;2.63;;;1.40;;
31126;SDS011;17775;57.948;12.514;2022-09-12T16:11:17;3.15;;;1.10;;
31126;SDS011;17775;57.948;12.514;2022-09-12T16:13:45;4.63;;;1.42;;
31126;SDS011;17775;57.948;12.514;2022-09-12T16:16:11;3.90;;;1.40;;
31126;SDS011;17775;57.948;12.514;2022-09-12T16:18:38;1.60;;;1.08;;
31126;SDS011;17775;57.948;12.514;2022-09-12T16:21:05;1.67;;;1.17;;
31126;SDS011;17775;57.948;12.514;2022-09-12T16:23:36;3.65;;;1.10;;
31126;SDS011;17775;57.948;12.514;2022-09-12T16:26:04;2.75;;;1.23;;
31126;SDS011;17775;57.948;12.514;2022-09-12T16:28:31;2.03;;;1.20;;
31126;SDS011;17775;57.948;12.514;2022-09-12T16:30:59;2.13;;;1.40;;
31126;SDS011;17775;57.948;12.514;2022-09-12T16:33:26;2.45;;;1.17;;
31126;SDS011;17775;57.948;12.514;2022-09-12T16:35:52;2.72;;;1.40;;
31126;SDS011;17775;57.948;12.514;2022-09-12T16:38:22;1.98;;;1.38;;
31126;SDS011;17775;57.948;12.514;2022-09-12T16:40:48;3.55;;;1.67;;
31126;SDS011;17775;57.948;12.514;2022-09-12T16:43:15;2.45;;;1.20;;
31126;SDS011;17775;57.948;12.514;2022-09-12T16:45:44;2.45;;;1.25;;
31126;SDS011;17775;57.948;12.514;2022-09-12T16:48:10;2.78;;;1.40;;
31126;SDS011;17775;57.948;12.514;2022-09-12T16:50:37;2.03;;;1.40;;
31126;SDS011;17775;57.948;12.514;2022-09-12T16:53:03;1.42;;;1.13;;
31126;SDS011;17775;57.948;12.514;2022-09-12T16:55:30;2.40;;;1.17;;
31126;SDS011;17775;57.948;12.514;2022-09-12T16:57:57;1.70;;;1.25;;
31126;SDS011;17775;57.948;12.514;2022-09-12T17:00:24;2.53;;;1.52;;
31126;SDS011;17775;57.948;12.514;2022-09-12T17:02:50;2.13;;;1.35;;
31126;SDS011;17775;57.948;12.514;2022-09-12T17:05:16;2.40;;;1.35;;
31126;SDS011;17775;57.948;12.514;2022-09-12T17:07:43;2.40;;;1.40;;
31126;SDS011;17775;57.948;12.514;2022-09-12T17:10:09;1.80;;;1.10;;
31126;SDS011;17775;57.948;12.514;2022-09-12T17:12:35;2.97;;;1.67;;
31126;SDS011;17775;57.948;12.514;2022-09-12T17:15:02;2.83;;;1.30;;
31126;SDS011;17775;57.948;12.514;2022-09-12T17:17:29;2.65;;;1.50;;
31126;SDS011;17775;57.948;12.514;2022-09-12T17:19:55;4.85;;;1.20;;
31126;SDS011;17775;57.948;12.514;2022-09-12T17:22:21;3.28;;;1.40;;
31126;SDS011;17775;57.948;12.514;2022-09-12T17:24:48;2.28;;;1.40;;